Coral Ruby — 3ERR6 — position and weather

sailwx.info

Track history (hours):
 
Tides and Currents Weather Stations Pressure Air Temp Water Temp Dewpoint Dewpoint Depression Visibility Wind Speed Wind Dir Waves Ship Positions

Coral Ruby

Last reported at 2014-Jul-15 02:29 UTC. Time now 2014-Jul-25 16:01 UTC.
Position S 26°37' E 153°43'.
Warning: this ship's position is 10 days out of date.

Length 225 m; draft 8.9 m.

Type: Ship. MMSI: 370150000.

Date/timePositionNaut miles runAvg speedWind from/ knotsBaromVisibWave heightAir tempDewpointWater temp
2014-Jul-15 02:29S 26°37' E 153°43'1212.7
2014-Jul-15 01:34S 26°49' E 153°43'1312.6
2014-Jul-15 00:33S 27°01' E 153°44'1313.0
2014-Jul-14 23:34S 27°14' E 153°45'1413.7
2014-Jul-14 22:33S 27°28' E 153°45'1212.4
2014-Jul-14 21:33S 27°41' E 153°46'1312.6
2014-Jul-14 20:33S 27°53' E 153°47'1312.5
2014-Jul-14 19:33S 28°06' E 153°48'27112.3
2014-Jul-13 21:27S 32°30' E 152°40'1213.3
2014-Jul-13 20:34S 32°39' E 152°30'1413.5
2014-Jul-13 19:33S 32°49' E 152°19'1312.6
2014-Jul-13 18:33S 32°56' E 152°07'1211.7
2014-Jul-13 17:34S 32°55' E 151°53'6 5.2
2014-Jul-13 16:30S 32°54' E 151°46'0 0.0
2014-Jul-13 15:33S 32°54' E 151°46'0 0.0
2014-Jul-13 14:33S 32°54' E 151°46'0 0.0
2014-Jul-13 13:33S 32°54' E 151°46'0 0.0
2014-Jul-13 12:33S 32°54' E 151°46'0 0.0
2014-Jul-13 11:30S 32°54' E 151°46'0 0.0
2014-Jul-13 10:33S 32°54' E 151°46'0 0.0
2014-Jul-13 09:33S 32°54' E 151°46'0 0.0
2014-Jul-13 08:33S 32°54' E 151°46'0 0.0
2014-Jul-13 07:33S 32°54' E 151°46'0 0.0
2014-Jul-13 06:33S 32°54' E 151°46'0 0.0
2014-Jul-13 05:33S 32°54' E 151°46'0 0.0
2014-Jul-13 04:30S 32°54' E 151°46'0 0.0
2014-Jul-13 03:33S 32°54' E 151°46'0 0.0
2014-Jul-13 02:33S 32°54' E 151°46'0 0.0
2014-Jul-13 01:33S 32°54' E 151°46'4 4.1
2014-Jul-13 00:34S 32°56' E 151°51'9 8.4
2014-Jul-12 23:31S 33°02' E 151°58'7 7.5
2014-Jul-12 22:34S 33°06' E 152°05'3 2.6
2014-Jul-12 21:33S 33°08' E 152°05'2 2.3
2014-Jul-12 20:32S 33°10' E 152°03'2 2.2
2014-Jul-12 19:33S 33°12' E 152°01'8 7.6
2014-Jul-12 18:33S 33°05' E 151°58'2 1.6
2014-Jul-12 17:31S 33°06' E 151°59'2 2.4
2014-Jul-12 16:33S 33°08' E 152°01'3 2.9
2014-Jul-12 15:30S 33°11' E 152°02'3 2.7
2014-Jul-12 14:33S 33°13' E 152°03'3 3.3
2014-Jul-12 13:31S 33°10' E 152°05'9 9.5
2014-Jul-12 12:33S 33°01' E 152°06'0 0.1
2014-Jul-12 11:33S 33°01' E 152°06'2 1.9
2014-Jul-12 10:33S 33°03' E 152°05'2 1.9
2014-Jul-12 09:33S 33°05' E 152°04'2 2.1
2014-Jul-12 08:30S 33°07' E 152°04'2 2.1
2014-Jul-12 07:33S 33°09' E 152°03'1 1.4
2014-Jul-12 06:34S 33°08' E 152°05'1010.2
2014-Jul-12 05:33S 32°59' E 152°08'3 2.6
2014-Jul-12 04:32S 33°00' E 152°05'2 1.9
2014-Jul-12 03:29S 33°02' E 152°04'2 1.8
2014-Jul-12 02:29S 33°03' E 152°03'1 1.6
2014-Jul-12 01:32S 33°05' E 152°02'2 2.5
2014-Jul-12 00:33S 33°07' E 152°04'1212.1
2014-Jul-11 23:32S 33°16' E 152°13'7 0.2
2014-Jul-10 14:27S 33°11' E 152°08'1213.0
2014-Jul-10 13:33S 33°01' E 152°01'7 6.6
2014-Jul-10 12:34S 32°56' E 152°06'1010.2
2014-Jul-10 11:34S 32°52' E 152°17'1111.3
2014-Jul-10 10:34S 32°44' E 152°26'1211.6
2014-Jul-10 09:34S 32°35' E 152°35'1312.2
2014-Jul-10 08:31S 32°25' E 152°45'26215.0
2014-Jul-09 15:04S 28°13' E 154°05'2214.3
2014-Jul-09 13:33S 27°51' E 154°05'1414.3
2014-Jul-09 12:33S 27°37' E 154°05'1414.3
2014-Jul-09 11:33S 27°22' E 154°05'1514.0
2014-Jul-09 10:30S 27°08' E 154°04'  
Track history (hours):
 
Tides and Currents Weather Stations Pressure Air Temp Water Temp Dewpoint Dewpoint Depression Visibility Wind Speed Wind Dir Waves Ship Positions

Coral Ruby

Last reported at 2014-Jul-15 02:29 UTC. Time now 2014-Jul-25 16:01 UTC.
Position S 26°37' E 153°43'.
Warning: this ship's position is 10 days out of date.

Length 225 m; draft 8.9 m.

Type: Ship. MMSI: 370150000.

Date/timePositionNaut miles runAvg speedWind from/ knotsBaromVisibWave heightAir tempDewpointWater temp
2014-Jul-15 02:29S 26°37' E 153°43'1212.7
2014-Jul-15 01:34S 26°49' E 153°43'1312.6
2014-Jul-15 00:33S 27°01' E 153°44'1313.0
2014-Jul-14 23:34S 27°14' E 153°45'1413.7
2014-Jul-14 22:33S 27°28' E 153°45'1212.4
2014-Jul-14 21:33S 27°41' E 153°46'1312.6
2014-Jul-14 20:33S 27°53' E 153°47'1312.5
2014-Jul-14 19:33S 28°06' E 153°48'27112.3
2014-Jul-13 21:27S 32°30' E 152°40'1213.3
2014-Jul-13 20:34S 32°39' E 152°30'1413.5
2014-Jul-13 19:33S 32°49' E 152°19'1312.6
2014-Jul-13 18:33S 32°56' E 152°07'1211.7
2014-Jul-13 17:34S 32°55' E 151°53'6 5.2
2014-Jul-13 16:30S 32°54' E 151°46'0 0.0
2014-Jul-13 15:33S 32°54' E 151°46'0 0.0
2014-Jul-13 14:33S 32°54' E 151°46'0 0.0
2014-Jul-13 13:33S 32°54' E 151°46'0 0.0
2014-Jul-13 12:33S 32°54' E 151°46'0 0.0
2014-Jul-13 11:30S 32°54' E 151°46'0 0.0
2014-Jul-13 10:33S 32°54' E 151°46'0 0.0
2014-Jul-13 09:33S 32°54' E 151°46'0 0.0
2014-Jul-13 08:33S 32°54' E 151°46'0 0.0
2014-Jul-13 07:33S 32°54' E 151°46'0 0.0
2014-Jul-13 06:33S 32°54' E 151°46'0 0.0
2014-Jul-13 05:33S 32°54' E 151°46'0 0.0
2014-Jul-13 04:30S 32°54' E 151°46'0 0.0
2014-Jul-13 03:33S 32°54' E 151°46'0 0.0
2014-Jul-13 02:33S 32°54' E 151°46'0 0.0
2014-Jul-13 01:33S 32°54' E 151°46'4 4.1
2014-Jul-13 00:34S 32°56' E 151°51'9 8.4
2014-Jul-12 23:31S 33°02' E 151°58'7 7.5
2014-Jul-12 22:34S 33°06' E 152°05'3 2.6
2014-Jul-12 21:33S 33°08' E 152°05'2 2.3
2014-Jul-12 20:32S 33°10' E 152°03'2 2.2
2014-Jul-12 19:33S 33°12' E 152°01'8 7.6
2014-Jul-12 18:33S 33°05' E 151°58'2 1.6
2014-Jul-12 17:31S 33°06' E 151°59'2 2.4
2014-Jul-12 16:33S 33°08' E 152°01'3 2.9
2014-Jul-12 15:30S 33°11' E 152°02'3 2.7
2014-Jul-12 14:33S 33°13' E 152°03'3 3.3
2014-Jul-12 13:31S 33°10' E 152°05'9 9.5
2014-Jul-12 12:33S 33°01' E 152°06'0 0.1
2014-Jul-12 11:33S 33°01' E 152°06'2 1.9
2014-Jul-12 10:33S 33°03' E 152°05'2 1.9
2014-Jul-12 09:33S 33°05' E 152°04'2 2.1
2014-Jul-12 08:30S 33°07' E 152°04'2 2.1
2014-Jul-12 07:33S 33°09' E 152°03'1 1.4
2014-Jul-12 06:34S 33°08' E 152°05'1010.2
2014-Jul-12 05:33S 32°59' E 152°08'3 2.6
2014-Jul-12 04:32S 33°00' E 152°05'2 1.9
2014-Jul-12 03:29S 33°02' E 152°04'2 1.8
2014-Jul-12 02:29S 33°03' E 152°03'1 1.6
2014-Jul-12 01:32S 33°05' E 152°02'2 2.5
2014-Jul-12 00:33S 33°07' E 152°04'1212.1
2014-Jul-11 23:32S 33°16' E 152°13'7 0.2
2014-Jul-10 14:27S 33°11' E 152°08'1213.0
2014-Jul-10 13:33S 33°01' E 152°01'7 6.6
2014-Jul-10 12:34S 32°56' E 152°06'1010.2
2014-Jul-10 11:34S 32°52' E 152°17'1111.3
2014-Jul-10 10:34S 32°44' E 152°26'1211.6
2014-Jul-10 09:34S 32°35' E 152°35'1312.2
2014-Jul-10 08:31S 32°25' E 152°45'26215.0
2014-Jul-09 15:04S 28°13' E 154°05'2214.3
2014-Jul-09 13:33S 27°51' E 154°05'1414.3
2014-Jul-09 12:33S 27°37' E 154°05'1414.3
2014-Jul-09 11:33S 27°22' E 154°05'1514.0
2014-Jul-09 10:30S 27°08' E 154°04'  

Dump ship's entire track history